sensor_id;sensor_type;location;lat;lon;timestamp;pressure;altitude;pressure_sealevel;temperature;humidity
75555;BME280;66087;53.126;17.960;2023-07-09T00:01:44;101335.17;;;18.33;54.42
75555;BME280;66087;53.126;17.960;2023-07-09T00:04:12;101326.60;;;18.22;55.08
75555;BME280;66087;53.126;17.960;2023-07-09T00:06:39;101345.95;;;18.24;55.09
75555;BME280;66087;53.126;17.960;2023-07-09T00:09:14;101346.27;;;18.19;55.13
75555;BME280;66087;53.126;17.960;2023-07-09T00:11:42;101343.11;;;18.15;55.19
75555;BME280;66087;53.126;17.960;2023-07-09T00:14:12;101346.84;;;18.12;55.01
75555;BME280;66087;53.126;17.960;2023-07-09T00:16:49;101347.38;;;18.07;55.07
75555;BME280;66087;53.126;17.960;2023-07-09T00:19:19;101341.61;;;18.03;55.26
75555;BME280;66087;53.126;17.960;2023-07-09T00:21:50;101339.65;;;18.03;55.06
75555;BME280;66087;53.126;17.960;2023-07-09T00:24:19;101342.69;;;18.01;55.37
75555;BME280;66087;53.126;17.960;2023-07-09T00:26:46;101344.26;;;17.97;55.40
75555;BME280;66087;53.126;17.960;2023-07-09T00:29:16;101342.46;;;17.92;55.86
75555;BME280;66087;53.126;17.960;2023-07-09T00:31:43;101342.54;;;17.86;56.22
75555;BME280;66087;53.126;17.960;2023-07-09T00:34:13;101341.27;;;17.79;56.03
75555;BME280;66087;53.126;17.960;2023-07-09T00:36:53;101341.22;;;17.74;56.17
75555;BME280;66087;53.126;17.960;2023-07-09T00:39:26;101341.20;;;17.69;56.57
75555;BME280;66087;53.126;17.960;2023-07-09T00:41:54;101348.19;;;17.62;56.78
75555;BME280;66087;53.126;17.960;2023-07-09T00:44:30;101345.23;;;17.55;56.70
75555;BME280;66087;53.126;17.960;2023-07-09T00:47:22;101345.19;;;17.51;56.97
75555;BME280;66087;53.126;17.960;2023-07-09T00:50:01;101345.48;;;17.46;57.01
75555;BME280;66087;53.126;17.960;2023-07-09T00:52:35;101340.91;;;17.42;57.30
75555;BME280;66087;53.126;17.960;2023-07-09T00:55:09;101337.83;;;17.37;57.95
75555;BME280;66087;53.126;17.960;2023-07-09T00:57:39;101340.48;;;17.32;57.56
75555;BME280;66087;53.126;17.960;2023-07-09T01:00:13;101344.61;;;17.28;58.48
75555;BME280;66087;53.126;17.960;2023-07-09T01:02:45;101342.23;;;17.21;58.43
75555;BME280;66087;53.126;17.960;2023-07-09T01:05:14;101342.41;;;17.14;58.81
75555;BME280;66087;53.126;17.960;2023-07-09T01:07:45;101339.79;;;17.08;58.36
75555;BME280;66087;53.126;17.960;2023-07-09T01:10:14;101341.33;;;17.06;58.53
75555;BME280;66087;53.126;17.960;2023-07-09T01:12:43;101345.63;;;17.04;58.41
75555;BME280;66087;53.126;17.960;2023-07-09T01:15:11;101345.66;;;17.00;58.74
75555;BME280;66087;53.126;17.960;2023-07-09T01:17:37;101344.62;;;16.95;58.78
75555;BME280;66087;53.126;17.960;2023-07-09T01:20:08;101346.75;;;16.89;58.99
75555;BME280;66087;53.126;17.960;2023-07-09T01:22:35;101348.86;;;16.83;60.05
75555;BME280;66087;53.126;17.960;2023-07-09T01:25:07;101349.35;;;16.77;59.96
75555;BME280;66087;53.126;17.960;2023-07-09T01:27:37;101349.69;;;16.71;59.78
75555;BME280;66087;53.126;17.960;2023-07-09T01:30:10;101348.23;;;16.69;59.91
75555;BME280;66087;53.126;17.960;2023-07-09T01:32:37;101344.84;;;16.67;60.06
75555;BME280;66087;53.126;17.960;2023-07-09T01:35:06;101349.30;;;16.64;60.83
75555;BME280;66087;53.126;17.960;2023-07-09T01:37:35;101352.38;;;16.58;61.08
75555;BME280;66087;53.126;17.960;2023-07-09T01:40:04;101351.51;;;16.51;61.28
75555;BME280;66087;53.126;17.960;2023-07-09T01:42:32;101349.99;;;16.46;60.60
75555;BME280;66087;53.126;17.960;2023-07-09T01:44:59;101351.21;;;16.45;61.31
75555;BME280;66087;53.126;17.960;2023-07-09T01:47:27;101347.54;;;16.41;60.98
75555;BME280;66087;53.126;17.960;2023-07-09T01:49:54;101349.21;;;16.36;61.51
75555;BME280;66087;53.126;17.960;2023-07-09T01:52:25;101354.77;;;16.31;61.78
75555;BME280;66087;53.126;17.960;2023-07-09T01:54:58;101361.45;;;16.27;61.78
75555;BME280;66087;53.126;17.960;2023-07-09T01:57:27;101366.28;;;16.22;62.50
75555;BME280;66087;53.126;17.960;2023-07-09T02:00:04;101371.48;;;16.14;63.13
75555;BME280;66087;53.126;17.960;2023-07-09T02:02:41;101372.88;;;16.09;62.83
75555;BME280;66087;53.126;17.960;2023-07-09T02:05:16;101372.03;;;16.08;62.85
75555;BME280;66087;53.126;17.960;2023-07-09T02:07:45;101372.73;;;16.12;62.35
75555;BME280;66087;53.126;17.960;2023-07-09T02:10:15;101371.47;;;16.18;62.23
75555;BME280;66087;53.126;17.960;2023-07-09T02:12:42;101372.41;;;16.22;62.01
75555;BME280;66087;53.126;17.960;2023-07-09T02:15:12;101376.55;;;16.25;62.03
75555;BME280;66087;53.126;17.960;2023-07-09T02:17:39;101379.09;;;16.24;62.64
75555;BME280;66087;53.126;17.960;2023-07-09T02:20:07;101377.04;;;16.18;62.53
75555;BME280;66087;53.126;17.960;2023-07-09T02:22:36;101378.68;;;16.11;62.42
75555;BME280;66087;53.126;17.960;2023-07-09T02:25:05;101372.61;;;16.10;62.39
75555;BME280;66087;53.126;17.960;2023-07-09T02:27:52;101368.27;;;16.08;62.61
75555;BME280;66087;53.126;17.960;2023-07-09T02:30:18;101372.36;;;16.11;62.66
75555;BME280;66087;53.126;17.960;2023-07-09T02:32:45;101375.23;;;16.09;62.77
75555;BME280;66087;53.126;17.960;2023-07-09T02:35:12;101375.27;;;16.07;63.17
75555;BME280;66087;53.126;17.960;2023-07-09T02:37:39;101378.31;;;16.05;63.16
75555;BME280;66087;53.126;17.960;2023-07-09T02:40:08;101375.36;;;16.03;63.65
75555;BME280;66087;53.126;17.960;2023-07-09T02:42:40;101374.95;;;16.03;63.28
75555;BME280;66087;53.126;17.960;2023-07-09T02:45:08;101376.11;;;16.05;63.32
75555;BME280;66087;53.126;17.960;2023-07-09T02:47:35;101375.83;;;16.04;63.48
75555;BME280;66087;53.126;17.960;2023-07-09T02:50:03;101380.30;;;16.03;63.32
75555;BME280;66087;53.126;17.960;2023-07-09T02:52:30;101385.02;;;16.05;63.49
75555;BME280;66087;53.126;17.960;2023-07-09T02:54:57;101390.54;;;16.05;63.90
75555;BME280;66087;53.126;17.960;2023-07-09T02:57:24;101396.46;;;15.99;64.39
75555;BME280;66087;53.126;17.960;2023-07-09T02:59:54;101392.44;;;15.93;65.07
75555;BME280;66087;53.126;17.960;2023-07-09T03:02:23;101394.45;;;15.87;65.22
75555;BME280;66087;53.126;17.960;2023-07-09T03:04:50;101398.86;;;15.83;64.79
75555;BME280;66087;53.126;17.960;2023-07-09T03:07:17;101402.42;;;15.81;65.39
75555;BME280;66087;53.126;17.960;2023-07-09T03:09:44;101405.13;;;15.80;65.46
75555;BME280;66087;53.126;17.960;2023-07-09T03:12:10;101405.42;;;15.81;65.11
75555;BME280;66087;53.126;17.960;2023-07-09T03:14:37;101405.41;;;15.84;65.09
75555;BME280;66087;53.126;17.960;2023-07-09T03:17:04;101408.61;;;15.85;65.19
75555;BME280;66087;53.126;17.960;2023-07-09T03:19:35;101411.59;;;15.89;65.09
75555;BME280;66087;53.126;17.960;2023-07-09T03:22:02;101412.33;;;15.91;64.95
75555;BME280;66087;53.126;17.960;2023-07-09T03:24:28;101414.70;;;15.94;65.29
75555;BME280;66087;53.126;17.960;2023-07-09T03:26:56;101413.08;;;15.93;65.58
75555;BME280;66087;53.126;17.960;2023-07-09T03:29:23;101416.42;;;15.90;65.68
75555;BME280;66087;53.126;17.960;2023-07-09T03:31:50;101422.70;;;15.89;65.54
75555;BME280;66087;53.126;17.960;2023-07-09T03:34:17;101425.95;;;15.92;65.36
75555;BME280;66087;53.126;17.960;2023-07-09T03:36:45;101429.95;;;16.02;65.27
75555;BME280;66087;53.126;17.960;2023-07-09T03:39:12;101429.67;;;16.11;65.10
75555;BME280;66087;53.126;17.960;2023-07-09T03:41:39;101430.21;;;16.17;65.42
75555;BME280;66087;53.126;17.960;2023-07-09T03:44:08;101426.84;;;16.24;64.94
75555;BME280;66087;53.126;17.960;2023-07-09T03:46:35;101429.01;;;16.32;64.95
75555;BME280;66087;53.126;17.960;2023-07-09T03:49:02;101433.29;;;16.36;65.10
75555;BME280;66087;53.126;17.960;2023-07-09T03:51:28;101426.20;;;16.41;64.96
75555;BME280;66087;53.126;17.960;2023-07-09T03:53:55;101424.84;;;16.45;65.08
75555;BME280;66087;53.126;17.960;2023-07-09T03:56:22;101417.46;;;16.45;65.24
75555;BME280;66087;53.126;17.960;2023-07-09T03:58:48;101422.33;;;16.42;65.20
75555;BME280;66087;53.126;17.960;2023-07-09T04:01:15;101421.38;;;16.43;65.81
75555;BME280;66087;53.126;17.960;2023-07-09T04:03:42;101420.33;;;16.44;65.32
75555;BME280;66087;53.126;17.960;2023-07-09T04:06:09;101417.15;;;16.48;65.48
75555;BME280;66087;53.126;17.960;2023-07-09T04:08:37;101422.35;;;16.54;65.21
75555;BME280;66087;53.126;17.960;2023-07-09T04:11:03;101419.09;;;16.57;65.81
75555;BME280;66087;53.126;17.960;2023-07-09T04:13:31;101421.59;;;16.57;65.29
75555;BME280;66087;53.126;17.960;2023-07-09T04:16:17;101422.23;;;16.57;65.78
75555;BME280;66087;53.126;17.960;2023-07-09T04:18:45;101422.75;;;16.58;65.75
75555;BME280;66087;53.126;17.960;2023-07-09T04:21:13;101427.70;;;16.61;65.83
75555;BME280;66087;53.126;17.960;2023-07-09T04:23:39;101428.90;;;16.66;65.86
75555;BME280;66087;53.126;17.960;2023-07-09T04:26:12;101435.05;;;16.71;65.72
75555;BME280;66087;53.126;17.960;2023-07-09T04:28:39;101432.29;;;16.81;65.70
75555;BME280;66087;53.126;17.960;2023-07-09T04:31:06;101438.11;;;16.89;65.47
75555;BME280;66087;53.126;17.960;2023-07-09T04:33:33;101444.58;;;17.00;65.61
75555;BME280;66087;53.126;17.960;2023-07-09T04:36:02;101446.70;;;17.09;65.30
75555;BME280;66087;53.126;17.960;2023-07-09T04:38:29;101448.27;;;17.17;65.37
75555;BME280;66087;53.126;17.960;2023-07-09T04:40:55;101437.80;;;17.23;65.34
75555;BME280;66087;53.126;17.960;2023-07-09T04:43:23;101439.06;;;17.29;65.48
75555;BME280;66087;53.126;17.960;2023-07-09T04:45:49;101438.86;;;17.36;65.20
75555;BME280;66087;53.126;17.960;2023-07-09T04:48:17;101441.70;;;17.47;65.25
75555;BME280;66087;53.126;17.960;2023-07-09T04:50:44;101444.91;;;17.56;65.34
75555;BME280;66087;53.126;17.960;2023-07-09T04:53:10;101438.55;;;17.62;65.18
75555;BME280;66087;53.126;17.960;2023-07-09T04:55:39;101435.81;;;17.67;65.45
75555;BME280;66087;53.126;17.960;2023-07-09T04:58:06;101433.86;;;17.72;65.09
75555;BME280;66087;53.126;17.960;2023-07-09T05:00:32;101437.31;;;17.77;65.25
75555;BME280;66087;53.126;17.960;2023-07-09T05:03:00;101441.20;;;17.84;65.08
75555;BME280;66087;53.126;17.960;2023-07-09T05:05:27;101448.88;;;17.90;65.09
75555;BME280;66087;53.126;17.960;2023-07-09T05:07:53;101457.67;;;17.95;64.95
75555;BME280;66087;53.126;17.960;2023-07-09T05:10:26;101461.17;;;18.02;64.69
75555;BME280;66087;53.126;17.960;2023-07-09T05:12:54;101461.67;;;18.09;64.55
75555;BME280;66087;53.126;17.960;2023-07-09T05:15:22;101461.15;;;18.15;64.24
75555;BME280;66087;53.126;17.960;2023-07-09T05:17:49;101461.98;;;18.21;63.86
75555;BME280;66087;53.126;17.960;2023-07-09T05:20:15;101458.45;;;18.28;63.98
75555;BME280;66087;53.126;17.960;2023-07-09T05:22:42;101459.55;;;18.36;63.44
75555;BME280;66087;53.126;17.960;2023-07-09T05:25:09;101460.92;;;18.45;63.20
75555;BME280;66087;53.126;17.960;2023-07-09T05:27:36;101457.42;;;18.51;62.86
75555;BME280;66087;53.126;17.960;2023-07-09T05:30:03;101458.24;;;18.58;62.91
75555;BME280;66087;53.126;17.960;2023-07-09T05:32:31;101457.97;;;18.64;62.94
75555;BME280;66087;53.126;17.960;2023-07-09T05:34:57;101461.50;;;18.71;62.70
75555;BME280;66087;53.126;17.960;2023-07-09T05:37:24;101463.93;;;18.78;62.41
75555;BME280;66087;53.126;17.960;2023-07-09T05:39:53;101459.33;;;18.86;62.25
75555;BME280;66087;53.126;17.960;2023-07-09T05:42:19;101454.00;;;18.88;62.00
75555;BME280;66087;53.126;17.960;2023-07-09T05:44:46;101466.20;;;18.98;61.91
75555;BME280;66087;53.126;17.960;2023-07-09T05:47:13;101463.42;;;19.00;61.71
75555;BME280;66087;53.126;17.960;2023-07-09T05:49:42;101462.08;;;19.09;60.66
75555;BME280;66087;53.126;17.960;2023-07-09T05:52:09;101464.62;;;19.15;59.49
75555;BME280;66087;53.126;17.960;2023-07-09T05:54:35;101463.52;;;19.20;59.25
75555;BME280;66087;53.126;17.960;2023-07-09T05:57:02;101462.93;;;19.27;59.35
75555;BME280;66087;53.126;17.960;2023-07-09T05:59:29;101458.37;;;19.36;58.92
75555;BME280;66087;53.126;17.960;2023-07-09T06:01:56;101455.37;;;19.43;58.28
75555;BME280;66087;53.126;17.960;2023-07-09T06:04:22;101448.55;;;19.47;57.10
75555;BME280;66087;53.126;17.960;2023-07-09T06:06:56;101447.19;;;19.51;57.36
75555;BME280;66087;53.126;17.960;2023-07-09T06:09:23;101449.05;;;19.59;56.85
75555;BME280;66087;53.126;17.960;2023-07-09T06:11:49;101449.71;;;19.68;55.42
75555;BME280;66087;53.126;17.960;2023-07-09T06:14:18;101446.51;;;19.76;55.53
75555;BME280;66087;53.126;17.960;2023-07-09T06:16:45;101446.69;;;19.81;55.21
75555;BME280;66087;53.126;17.960;2023-07-09T06:19:11;101451.29;;;19.89;54.24
75555;BME280;66087;53.126;17.960;2023-07-09T06:21:43;101452.42;;;19.94;53.72
75555;BME280;66087;53.126;17.960;2023-07-09T06:24:18;101455.74;;;19.98;53.19
75555;BME280;66087;53.126;17.960;2023-07-09T06:26:47;101461.29;;;20.01;53.49
75555;BME280;66087;53.126;17.960;2023-07-09T06:29:14;101458.58;;;20.06;52.89
75555;BME280;66087;53.126;17.960;2023-07-09T06:31:45;101457.31;;;20.12;53.04
75555;BME280;66087;53.126;17.960;2023-07-09T06:34:11;101456.45;;;20.18;52.46
75555;BME280;66087;53.126;17.960;2023-07-09T06:36:38;101455.89;;;20.24;52.31
75555;BME280;66087;53.126;17.960;2023-07-09T06:39:05;101457.30;;;20.32;52.05
75555;BME280;66087;53.126;17.960;2023-07-09T06:41:32;101458.56;;;20.35;51.77
75555;BME280;66087;53.126;17.960;2023-07-09T06:44:06;101457.25;;;20.40;52.24
75555;BME280;66087;53.126;17.960;2023-07-09T06:46:33;101457.27;;;20.46;51.67
75555;BME280;66087;53.126;17.960;2023-07-09T06:49:01;101455.30;;;20.55;51.53
75555;BME280;66087;53.126;17.960;2023-07-09T06:51:27;101454.41;;;20.61;51.05
75555;BME280;66087;53.126;17.960;2023-07-09T06:53:54;101452.78;;;20.66;50.67
75555;BME280;66087;53.126;17.960;2023-07-09T06:56:21;101454.95;;;20.71;50.30
75555;BME280;66087;53.126;17.960;2023-07-09T06:58:48;101458.67;;;20.74;50.10
75555;BME280;66087;53.126;17.960;2023-07-09T07:01:15;101455.52;;;20.78;50.00
75555;BME280;66087;53.126;17.960;2023-07-09T07:03:42;101453.95;;;20.84;49.47
75555;BME280;66087;53.126;17.960;2023-07-09T07:06:08;101452.60;;;20.89;49.96
75555;BME280;66087;53.126;17.960;2023-07-09T07:08:35;101454.17;;;20.97;49.98
75555;BME280;66087;53.126;17.960;2023-07-09T07:11:04;101460.52;;;21.03;49.48
75555;BME280;66087;53.126;17.960;2023-07-09T07:13:35;101461.95;;;21.09;49.56
75555;BME280;66087;53.126;17.960;2023-07-09T07:16:04;101460.89;;;21.17;49.73
75555;BME280;66087;53.126;17.960;2023-07-09T07:18:31;101459.32;;;21.24;48.55
75555;BME280;66087;53.126;17.960;2023-07-09T07:20:59;101461.68;;;21.26;47.90
75555;BME280;66087;53.126;17.960;2023-07-09T07:23:27;101459.45;;;21.29;48.42
75555;BME280;66087;53.126;17.960;2023-07-09T07:25:55;101460.51;;;21.35;48.55
75555;BME280;66087;53.126;17.960;2023-07-09T07:28:22;101461.56;;;21.40;48.00
75555;BME280;66087;53.126;17.960;2023-07-09T07:31:01;101461.95;;;21.43;47.78
75555;BME280;66087;53.126;17.960;2023-07-09T07:33:29;101462.55;;;21.47;47.70
75555;BME280;66087;53.126;17.960;2023-07-09T07:35:55;101459.90;;;21.50;47.00
75555;BME280;66087;53.126;17.960;2023-07-09T07:38:22;101459.89;;;21.54;47.40
75555;BME280;66087;53.126;17.960;2023-07-09T07:40:49;101461.72;;;21.58;47.09
75555;BME280;66087;53.126;17.960;2023-07-09T07:43:16;101452.04;;;21.63;46.73
75555;BME280;66087;53.126;17.960;2023-07-09T07:45:43;101448.23;;;21.66;46.00
75555;BME280;66087;53.126;17.960;2023-07-09T07:48:10;101451.21;;;21.70;46.44
75555;BME280;66087;53.126;17.960;2023-07-09T07:50:37;101452.67;;;21.74;45.71
75555;BME280;66087;53.126;17.960;2023-07-09T07:53:04;101456.56;;;21.79;45.23
75555;BME280;66087;53.126;17.960;2023-07-09T07:55:31;101457.56;;;21.84;45.15
75555;BME280;66087;53.126;17.960;2023-07-09T07:57:57;101455.05;;;21.89;45.31
75555;BME280;66087;53.126;17.960;2023-07-09T08:00:24;101453.88;;;21.95;45.03
75555;BME280;66087;53.126;17.960;2023-07-09T08:02:51;101457.72;;;22.01;44.38
75555;BME280;66087;53.126;17.960;2023-07-09T08:05:18;101457.86;;;22.06;44.18
75555;BME280;66087;53.126;17.960;2023-07-09T08:07:44;101454.48;;;22.09;44.57
75555;BME280;66087;53.126;17.960;2023-07-09T08:10:12;101455.13;;;22.15;44.81
75555;BME280;66087;53.126;17.960;2023-07-09T08:12:39;101453.35;;;22.23;44.04
75555;BME280;66087;53.126;17.960;2023-07-09T08:15:07;101454.00;;;22.26;43.30
75555;BME280;66087;53.126;17.960;2023-07-09T08:17:34;101452.56;;;22.24;43.81
75555;BME280;66087;53.126;17.960;2023-07-09T08:20:01;101453.89;;;22.30;43.96
75555;BME280;66087;53.126;17.960;2023-07-09T08:22:27;101452.25;;;22.37;43.82
75555;BME280;66087;53.126;17.960;2023-07-09T08:24:54;101455.43;;;22.46;42.79
75555;BME280;66087;53.126;17.960;2023-07-09T08:27:20;101454.31;;;22.53;42.50
75555;BME280;66087;53.126;17.960;2023-07-09T08:29:47;101451.89;;;22.60;42.71
75555;BME280;66087;53.126;17.960;2023-07-09T08:32:16;101449.77;;;22.68;42.81
75555;BME280;66087;53.126;17.960;2023-07-09T08:34:43;101449.81;;;22.76;42.53
75555;BME280;66087;53.126;17.960;2023-07-09T08:37:09;101445.02;;;22.79;42.14
75555;BME280;66087;53.126;17.960;2023-07-09T08:39:36;101444.48;;;22.83;42.05
75555;BME280;66087;53.126;17.960;2023-07-09T08:42:08;101443.27;;;22.88;42.41
75555;BME280;66087;53.126;17.960;2023-07-09T08:47:52;101438.83;;;23.01;42.19
75555;BME280;66087;53.126;17.960;2023-07-09T08:50:31;101437.73;;;23.09;41.51
75555;BME280;66087;53.126;17.960;2023-07-09T08:52:59;101435.31;;;23.15;41.59
75555;BME280;66087;53.126;17.960;2023-07-09T08:55:29;101435.55;;;23.22;41.63
75555;BME280;66087;53.126;17.960;2023-07-09T08:58:14;101434.08;;;23.34;41.67
75555;BME280;66087;53.126;17.960;2023-07-09T09:00:53;101437.09;;;23.45;40.70
75555;BME280;66087;53.126;17.960;2023-07-09T09:03:47;101434.95;;;23.52;40.63
75555;BME280;66087;53.126;17.960;2023-07-09T09:06:20;101434.98;;;23.60;37.97
75555;BME280;66087;53.126;17.960;2023-07-09T09:11:42;101438.89;;;23.80;38.45
75555;BME280;66087;53.126;17.960;2023-07-09T09:14:25;101430.93;;;23.88;38.53
75555;BME280;66087;53.126;17.960;2023-07-09T09:16:56;101430.45;;;23.92;36.88
75555;BME280;66087;53.126;17.960;2023-07-09T09:19:29;101428.63;;;23.96;37.78
75555;BME280;66087;53.126;17.960;2023-07-09T09:22:12;101427.52;;;24.03;37.44
75555;BME280;66087;53.126;17.960;2023-07-09T09:24:56;101422.10;;;24.09;36.34
75555;BME280;66087;53.126;17.960;2023-07-09T09:27:26;101416.61;;;24.18;35.90
75555;BME280;66087;53.126;17.960;2023-07-09T09:29:53;101414.59;;;24.30;36.76
75555;BME280;66087;53.126;17.960;2023-07-09T09:32:25;101414.75;;;24.38;36.31
75555;BME280;66087;53.126;17.960;2023-07-09T09:34:53;101416.92;;;24.45;36.82
75555;BME280;66087;53.126;17.960;2023-07-09T09:37:28;101417.23;;;24.54;36.88
75555;BME280;66087;53.126;17.960;2023-07-09T09:39:58;101417.21;;;24.61;36.66
75555;BME280;66087;53.126;17.960;2023-07-09T09:42:25;101416.95;;;24.69;36.33
75555;BME280;66087;53.126;17.960;2023-07-09T09:44:54;101417.52;;;24.73;35.38
75555;BME280;66087;53.126;17.960;2023-07-09T09:47:26;101422.94;;;24.78;35.02
75555;BME280;66087;53.126;17.960;2023-07-09T09:49:53;101428.48;;;24.81;35.70
75555;BME280;66087;53.126;17.960;2023-07-09T09:52:29;101424.48;;;24.87;35.62
75555;BME280;66087;53.126;17.960;2023-07-09T09:55:12;101426.63;;;24.94;35.18
75555;BME280;66087;53.126;17.960;2023-07-09T09:57:48;101424.39;;;25.02;35.11
75555;BME280;66087;53.126;17.960;2023-07-09T10:00:17;101428.20;;;25.12;34.81
75555;BME280;66087;53.126;17.960;2023-07-09T10:02:45;101423.23;;;25.23;34.38
75555;BME280;66087;53.126;17.960;2023-07-09T10:05:14;101416.55;;;25.33;34.63
75555;BME280;66087;53.126;17.960;2023-07-09T10:08:07;101416.82;;;25.41;34.30
75555;BME280;66087;53.126;17.960;2023-07-09T10:10:33;101419.90;;;25.50;34.26
75555;BME280;66087;53.126;17.960;2023-07-09T10:13:15;101420.77;;;25.62;34.28
75555;BME280;66087;53.126;17.960;2023-07-09T10:16:07;101421.53;;;25.75;33.92
75555;BME280;66087;53.126;17.960;2023-07-09T10:19:04;101421.66;;;25.78;33.48
75555;BME280;66087;53.126;17.960;2023-07-09T10:21:38;101428.80;;;25.86;33.99
75555;BME280;66087;53.126;17.960;2023-07-09T10:27:11;101432.74;;;25.98;33.09
75555;BME280;66087;53.126;17.960;2023-07-09T10:30:02;101435.70;;;26.02;33.13
75555;BME280;66087;53.126;17.960;2023-07-09T10:35:32;101429.63;;;26.16;32.90
75555;BME280;66087;53.126;17.960;2023-07-09T10:38:21;101426.97;;;26.26;32.33
75555;BME280;66087;53.126;17.960;2023-07-09T10:40:57;101427.73;;;26.35;31.73
75555;BME280;66087;53.126;17.960;2023-07-09T10:43:36;101431.59;;;26.38;32.24
75555;BME280;66087;53.126;17.960;2023-07-09T10:46:13;101427.80;;;26.40;31.15
75555;BME280;66087;53.126;17.960;2023-07-09T10:48:45;101422.60;;;26.44;30.96
75555;BME280;66087;53.126;17.960;2023-07-09T10:56:42;101424.08;;;26.82;30.63
75555;BME280;66087;53.126;17.960;2023-07-09T10:59:22;101423.09;;;26.89;30.48
75555;BME280;66087;53.126;17.960;2023-07-09T11:04:59;101424.25;;;27.06;29.60
75555;BME280;66087;53.126;17.960;2023-07-09T11:07:51;101421.58;;;27.13;29.81
75555;BME280;66087;53.126;17.960;2023-07-09T11:10:27;101422.46;;;27.24;29.16
75555;BME280;66087;53.126;17.960;2023-07-09T11:13:10;101422.30;;;27.38;29.42
75555;BME280;66087;53.126;17.960;2023-07-09T11:15:42;101419.12;;;27.37;28.67
75555;BME280;66087;53.126;17.960;2023-07-09T11:18:29;101422.59;;;27.46;28.95
75555;BME280;66087;53.126;17.960;2023-07-09T11:21:04;101420.79;;;27.43;28.83
75555;BME280;66087;53.126;17.960;2023-07-09T11:23:49;101416.26;;;27.50;29.29
75555;BME280;66087;53.126;17.960;2023-07-09T11:26:27;101413.52;;;27.61;29.28
75555;BME280;66087;53.126;17.960;2023-07-09T11:29:17;101415.45;;;27.64;28.98
75555;BME280;66087;53.126;17.960;2023-07-09T11:31:45;101410.00;;;27.65;29.03
75555;BME280;66087;53.126;17.960;2023-07-09T11:34:19;101409.39;;;27.79;29.14
75555;BME280;66087;53.126;17.960;2023-07-09T11:36:52;101407.92;;;27.98;28.82
75555;BME280;66087;53.126;17.960;2023-07-09T11:39:30;101406.79;;;28.18;28.71
75555;BME280;66087;53.126;17.960;2023-07-09T11:41:58;101410.63;;;28.42;29.07
75555;BME280;66087;53.126;17.960;2023-07-09T11:44:27;101403.98;;;28.57;28.58
75555;BME280;66087;53.126;17.960;2023-07-09T11:49:56;101405.63;;;28.82;27.92
75555;BME280;66087;53.126;17.960;2023-07-09T11:52:32;101400.80;;;28.90;27.65
75555;BME280;66087;53.126;17.960;2023-07-09T11:55:22;101401.66;;;28.98;27.75
75555;BME280;66087;53.126;17.960;2023-07-09T11:58:03;101393.21;;;29.19;28.05
75555;BME280;66087;53.126;17.960;2023-07-09T12:00:42;101391.79;;;29.42;27.11
75555;BME280;66087;53.126;17.960;2023-07-09T12:03:17;101389.20;;;29.53;26.63
75555;BME280;66087;53.126;17.960;2023-07-09T12:05:50;101397.16;;;29.63;26.41
75555;BME280;66087;53.126;17.960;2023-07-09T12:08:22;101387.89;;;29.73;26.26
75555;BME280;66087;53.126;17.960;2023-07-09T12:10:52;101383.67;;;29.81;26.57
75555;BME280;66087;53.126;17.960;2023-07-09T12:13:19;101381.91;;;29.98;26.36
75555;BME280;66087;53.126;17.960;2023-07-09T12:15:46;101380.75;;;30.09;25.94
75555;BME280;66087;53.126;17.960;2023-07-09T12:18:15;101377.50;;;30.17;26.15
75555;BME280;66087;53.126;17.960;2023-07-09T12:20:52;101374.33;;;30.27;26.30
75555;BME280;66087;53.126;17.960;2023-07-09T12:23:27;101371.56;;;30.32;26.20
75555;BME280;66087;53.126;17.960;2023-07-09T12:26:00;101374.52;;;30.57;25.75
75555;BME280;66087;53.126;17.960;2023-07-09T12:28:29;101366.98;;;30.70;25.47
75555;BME280;66087;53.126;17.960;2023-07-09T12:30:56;101359.34;;;30.80;25.63
75555;BME280;66087;53.126;17.960;2023-07-09T12:33:26;101360.15;;;30.99;25.52
75555;BME280;66087;53.126;17.960;2023-07-09T12:36:05;101354.42;;;31.09;25.31
75555;BME280;66087;53.126;17.960;2023-07-09T12:38:42;101350.53;;;31.19;25.13
75555;BME280;66087;53.126;17.960;2023-07-09T12:41:19;101353.48;;;31.32;25.15
75555;BME280;66087;53.126;17.960;2023-07-09T12:43:47;101350.13;;;31.43;25.16
75555;BME280;66087;53.126;17.960;2023-07-09T12:46:15;101345.71;;;31.68;24.97
75555;BME280;66087;53.126;17.960;2023-07-09T12:48:43;101340.77;;;32.80;23.24
75555;BME280;66087;53.126;17.960;2023-07-09T12:51:18;101345.64;;;33.91;22.44
75555;BME280;66087;53.126;17.960;2023-07-09T12:53:46;101341.05;;;35.00;22.06
75555;BME280;66087;53.126;17.960;2023-07-09T12:56:15;101334.91;;;35.87;21.49
75555;BME280;66087;53.126;17.960;2023-07-09T12:58:43;101336.16;;;36.76;21.29
75555;BME280;66087;53.126;17.960;2023-07-09T13:01:16;101327.02;;;37.48;20.99
75555;BME280;66087;53.126;17.960;2023-07-09T13:03:56;101330.27;;;38.13;19.47
75555;BME280;66087;53.126;17.960;2023-07-09T13:06:35;101332.49;;;38.58;19.61
75555;BME280;66087;53.126;17.960;2023-07-09T13:09:19;101333.55;;;39.11;18.73
75555;BME280;66087;53.126;17.960;2023-07-09T13:11:49;101337.09;;;39.68;18.26
75555;BME280;66087;53.126;17.960;2023-07-09T13:14:19;101332.95;;;40.16;17.47
75555;BME280;66087;53.126;17.960;2023-07-09T13:16:46;101328.79;;;40.47;16.33
75555;BME280;66087;53.126;17.960;2023-07-09T13:19:13;101328.19;;;40.77;16.36
75555;BME280;66087;53.126;17.960;2023-07-09T13:21:40;101327.10;;;41.08;15.56